sensor_id;sensor_type;location;lat;lon;timestamp;pressure;altitude;pressure_sealevel;temperature;humidity
29385;BME280;16367;48.736;9.218;2023-03-04T00:00:03;-23248.69;;;2.54;95.79
29385;BME280;16367;48.736;9.218;2023-03-04T00:02:06;-23248.53;;;2.53;95.66
29385;BME280;16367;48.736;9.218;2023-03-04T00:04:10;-23244.22;;;2.40;96.23
29385;BME280;16367;48.736;9.218;2023-03-04T00:06:13;-23243.56;;;2.38;96.30
29385;BME280;16367;48.736;9.218;2023-03-04T00:08:15;-23244.22;;;2.40;97.88
29385;BME280;16367;48.736;9.218;2023-03-04T00:10:18;-23240.72;;;2.28;97.03
29385;BME280;16367;48.736;9.218;2023-03-04T00:12:21;-23239.44;;;2.24;97.48
29385;BME280;16367;48.736;9.218;2023-03-04T00:14:23;-23234.97;;;2.10;98.39
29385;BME280;16367;48.736;9.218;2023-03-04T00:16:28;-23239.28;;;2.24;98.89
29385;BME280;16367;48.736;9.218;2023-03-04T00:18:30;-23242.31;;;2.34;98.36
29385;BME280;16367;48.736;9.218;2023-03-04T00:20:34;-23237.84;;;2.19;98.69
29385;BME280;16367;48.736;9.218;2023-03-04T00:22:37;-23234.16;;;2.08;99.41
29385;BME280;16367;48.736;9.218;2023-03-04T00:24:40;-23234.16;;;2.08;99.75
29385;BME280;16367;48.736;9.218;2023-03-04T00:26:43;-23232.41;;;2.02;99.05
29385;BME280;16367;48.736;9.218;2023-03-04T00:28:46;-23230.50;;;1.96;100.00
29385;BME280;16367;48.736;9.218;2023-03-04T00:30:49;-23232.72;;;2.03;100.00
29385;BME280;16367;48.736;9.218;2023-03-04T00:32:52;-23231.47;;;1.99;99.85
29385;BME280;16367;48.736;9.218;2023-03-04T00:34:54;-23236.25;;;2.14;99.53
29385;BME280;16367;48.736;9.218;2023-03-04T00:36:59;-23231.28;;;1.99;99.74
29385;BME280;16367;48.736;9.218;2023-03-04T00:39:04;-23227.78;;;1.88;100.00
29385;BME280;16367;48.736;9.218;2023-03-04T00:41:07;-23227.63;;;1.87;100.00
29385;BME280;16367;48.736;9.218;2023-03-04T00:43:09;-23228.59;;;1.90;100.00
29385;BME280;16367;48.736;9.218;2023-03-04T00:45:12;-23225.72;;;1.81;100.00
29385;BME280;16367;48.736;9.218;2023-03-04T00:47:15;-23229.38;;;1.93;100.00
29385;BME280;16367;48.736;9.218;2023-03-04T00:49:17;-23227.78;;;1.88;100.00
29385;BME280;16367;48.736;9.218;2023-03-04T00:51:20;-23223.94;;;1.76;100.00
29385;BME280;16367;48.736;9.218;2023-03-04T00:53:24;-23230.03;;;1.95;100.00
29385;BME280;16367;48.736;9.218;2023-03-04T00:55:27;-23229.84;;;1.94;100.00
29385;BME280;16367;48.736;9.218;2023-03-04T00:57:30;-23229.06;;;1.92;100.00
29385;BME280;16367;48.736;9.218;2023-03-04T00:59:33;-23226.66;;;1.84;100.00
29385;BME280;16367;48.736;9.218;2023-03-04T01:01:36;-23224.13;;;1.76;100.00
29385;BME280;16367;48.736;9.218;2023-03-04T01:03:38;-23225.72;;;1.81;100.00
29385;BME280;16367;48.736;9.218;2023-03-04T01:05:41;-23226.81;;;1.85;100.00
29385;BME280;16367;48.736;9.218;2023-03-04T01:07:44;-23230.03;;;1.95;100.00
29385;BME280;16367;48.736;9.218;2023-03-04T01:09:48;-23230.50;;;1.96;100.00
29385;BME280;16367;48.736;9.218;2023-03-04T01:11:51;-23228.59;;;1.90;99.85
29385;BME280;16367;48.736;9.218;2023-03-04T01:13:54;-23230.50;;;1.96;99.90
29385;BME280;16367;48.736;9.218;2023-03-04T01:15:56;-23226.34;;;1.83;100.00
29385;BME280;16367;48.736;9.218;2023-03-04T01:17:59;-23224.13;;;1.76;100.00
29385;BME280;16367;48.736;9.218;2023-03-04T01:20:03;-23225.06;;;1.79;100.00
29385;BME280;16367;48.736;9.218;2023-03-04T01:22:06;-23222.69;;;1.72;100.00
29385;BME280;16367;48.736;9.218;2023-03-04T01:24:08;-23224.13;;;1.76;100.00
29385;BME280;16367;48.736;9.218;2023-03-04T01:26:12;-23218.84;;;1.60;100.00
29385;BME280;16367;48.736;9.218;2023-03-04T01:28:15;-23217.41;;;1.55;100.00
29385;BME280;16367;48.736;9.218;2023-03-04T01:30:18;-23217.25;;;1.55;100.00
29385;BME280;16367;48.736;9.218;2023-03-04T01:32:21;-23218.06;;;1.57;100.00
29385;BME280;16367;48.736;9.218;2023-03-04T01:34:24;-23217.25;;;1.55;100.00
29385;BME280;16367;48.736;9.218;2023-03-04T01:36:26;-23216.13;;;1.51;100.00
29385;BME280;16367;48.736;9.218;2023-03-04T01:38:29;-23213.56;;;1.43;100.00
29385;BME280;16367;48.736;9.218;2023-03-04T01:40:32;-23215.19;;;1.48;100.00
29385;BME280;16367;48.736;9.218;2023-03-04T01:42:36;-23213.25;;;1.42;100.00
29385;BME280;16367;48.736;9.218;2023-03-04T01:44:39;-23211.66;;;1.37;100.00
29385;BME280;16367;48.736;9.218;2023-03-04T01:46:46;-23211.66;;;1.37;100.00
29385;BME280;16367;48.736;9.218;2023-03-04T01:48:49;-23208.63;;;1.27;100.00
29385;BME280;16367;48.736;9.218;2023-03-04T01:50:52;-23209.75;;;1.31;100.00
29385;BME280;16367;48.736;9.218;2023-03-04T01:52:55;-23210.38;;;1.33;100.00
29385;BME280;16367;48.736;9.218;2023-03-04T01:54:58;-23209.75;;;1.31;100.00
29385;BME280;16367;48.736;9.218;2023-03-04T01:57:01;-23210.38;;;1.33;100.00
29385;BME280;16367;48.736;9.218;2023-03-04T01:59:11;-23211.19;;;1.35;100.00
29385;BME280;16367;48.736;9.218;2023-03-04T02:01:14;-23208.47;;;1.27;100.00
29385;BME280;16367;48.736;9.218;2023-03-04T02:03:17;-23208.47;;;1.27;100.00
29385;BME280;16367;48.736;9.218;2023-03-04T02:05:21;-23209.13;;;1.29;100.00
29385;BME280;16367;48.736;9.218;2023-03-04T02:07:25;-23207.50;;;1.24;100.00
29385;BME280;16367;48.736;9.218;2023-03-04T02:09:29;-23207.84;;;1.25;100.00
29385;BME280;16367;48.736;9.218;2023-03-04T02:11:32;-23207.19;;;1.23;100.00
29385;BME280;16367;48.736;9.218;2023-03-04T02:13:35;-23202.72;;;1.09;100.00
29385;BME280;16367;48.736;9.218;2023-03-04T02:15:40;-23201.44;;;1.05;100.00
29385;BME280;16367;48.736;9.218;2023-03-04T02:17:43;-23204.31;;;1.14;100.00
29385;BME280;16367;48.736;9.218;2023-03-04T02:19:50;-23203.03;;;1.10;100.00
29385;BME280;16367;48.736;9.218;2023-03-04T02:21:54;-23201.75;;;1.06;100.00
29385;BME280;16367;48.736;9.218;2023-03-04T02:24:04;-23198.88;;;0.97;100.00
29385;BME280;16367;48.736;9.218;2023-03-04T02:26:13;-23196.81;;;0.90;100.00
29385;BME280;16367;48.736;9.218;2023-03-04T02:28:15;-23195.84;;;0.87;100.00
29385;BME280;16367;48.736;9.218;2023-03-04T02:30:20;-23194.75;;;0.84;100.00
29385;BME280;16367;48.736;9.218;2023-03-04T02:32:25;-23192.81;;;0.77;100.00
29385;BME280;16367;48.736;9.218;2023-03-04T02:34:30;-23193.78;;;0.81;100.00
29385;BME280;16367;48.736;9.218;2023-03-04T02:36:35;-23193.63;;;0.80;100.00
29385;BME280;16367;48.736;9.218;2023-03-04T02:38:38;-23191.22;;;0.72;100.00
29385;BME280;16367;48.736;9.218;2023-03-04T02:40:42;-23190.91;;;0.71;100.00
29385;BME280;16367;48.736;9.218;2023-03-04T02:42:49;-23191.53;;;0.73;100.00
29385;BME280;16367;48.736;9.218;2023-03-04T02:44:58;-23189.78;;;0.68;100.00
29385;BME280;16367;48.736;9.218;2023-03-04T02:47:03;-23191.88;;;0.74;100.00
29385;BME280;16367;48.736;9.218;2023-03-04T02:49:06;-23194.09;;;0.82;100.00
29385;BME280;16367;48.736;9.218;2023-03-04T02:51:08;-23192.81;;;0.77;100.00
29385;BME280;16367;48.736;9.218;2023-03-04T02:53:11;-23196.97;;;0.91;100.00
29385;BME280;16367;48.736;9.218;2023-03-04T02:55:14;-23191.38;;;0.73;100.00
29385;BME280;16367;48.736;9.218;2023-03-04T02:57:17;-23189.78;;;0.68;100.00
29385;BME280;16367;48.736;9.218;2023-03-04T02:59:22;-23187.06;;;0.59;100.00
29385;BME280;16367;48.736;9.218;2023-03-04T03:01:27;-23189.78;;;0.68;100.00
29385;BME280;16367;48.736;9.218;2023-03-04T03:03:30;-23186.44;;;0.57;100.00
29385;BME280;16367;48.736;9.218;2023-03-04T03:05:33;-23187.06;;;0.59;100.00
29385;BME280;16367;48.736;9.218;2023-03-04T03:07:36;-23185.16;;;0.53;100.00
29385;BME280;16367;48.736;9.218;2023-03-04T03:09:39;-23184.84;;;0.52;100.00
29385;BME280;16367;48.736;9.218;2023-03-04T03:11:42;-23186.75;;;0.58;100.00
29385;BME280;16367;48.736;9.218;2023-03-04T03:13:44;-23186.13;;;0.56;100.00
29385;BME280;16367;48.736;9.218;2023-03-04T03:15:48;-23185.63;;;0.55;100.00
29385;BME280;16367;48.736;9.218;2023-03-04T03:17:51;-23180.06;;;0.37;100.00
29385;BME280;16367;48.736;9.218;2023-03-04T03:19:54;-23183.09;;;0.47;100.00
29385;BME280;16367;48.736;9.218;2023-03-04T03:21:56;-23181.00;;;0.40;100.00
29385;BME280;16367;48.736;9.218;2023-03-04T03:23:59;-23179.25;;;0.35;100.00
29385;BME280;16367;48.736;9.218;2023-03-04T03:26:02;-23175.88;;;0.24;100.00
29385;BME280;16367;48.736;9.218;2023-03-04T03:28:05;-23179.09;;;0.34;100.00
29385;BME280;16367;48.736;9.218;2023-03-04T03:30:10;-23177.31;;;0.29;100.00
29385;BME280;16367;48.736;9.218;2023-03-04T03:32:14;-23174.94;;;0.21;100.00
29385;BME280;16367;48.736;9.218;2023-03-04T03:34:17;-23174.13;;;0.19;100.00
29385;BME280;16367;48.736;9.218;2023-03-04T03:36:20;-23173.19;;;0.16;100.00
29385;BME280;16367;48.736;9.218;2023-03-04T03:38:22;-23175.41;;;0.23;100.00
29385;BME280;16367;48.736;9.218;2023-03-04T03:40:25;-23173.97;;;0.18;100.00
29385;BME280;16367;48.736;9.218;2023-03-04T03:42:28;-23174.13;;;0.19;100.00
29385;BME280;16367;48.736;9.218;2023-03-04T03:44:30;-23172.38;;;0.13;100.00
29385;BME280;16367;48.736;9.218;2023-03-04T03:46:33;-23170.78;;;0.08;100.00
29385;BME280;16367;48.736;9.218;2023-03-04T03:48:37;-23168.53;;;0.01;100.00
29385;BME280;16367;48.736;9.218;2023-03-04T03:50:40;-23164.88;;;-0.11;100.00
29385;BME280;16367;48.736;9.218;2023-03-04T03:52:42;-23162.94;;;-0.17;100.00
29385;BME280;16367;48.736;9.218;2023-03-04T03:54:45;-23162.94;;;-0.17;100.00
29385;BME280;16367;48.736;9.218;2023-03-04T03:56:48;-23164.38;;;-0.12;100.00
29385;BME280;16367;48.736;9.218;2023-03-04T03:58:50;-23164.06;;;-0.13;100.00
29385;BME280;16367;48.736;9.218;2023-03-04T04:00:53;-23166.00;;;-0.07;100.00
29385;BME280;16367;48.736;9.218;2023-03-04T04:02:59;-23169.66;;;0.05;100.00
29385;BME280;16367;48.736;9.218;2023-03-04T04:05:07;-23166.00;;;-0.07;100.00
29385;BME280;16367;48.736;9.218;2023-03-04T04:07:10;-23164.22;;;-0.13;100.00
29385;BME280;16367;48.736;9.218;2023-03-04T04:09:13;-23166.47;;;-0.06;100.00
29385;BME280;16367;48.736;9.218;2023-03-04T04:11:16;-23165.66;;;-0.08;100.00
29385;BME280;16367;48.736;9.218;2023-03-04T04:13:18;-23163.75;;;-0.14;100.00
29385;BME280;16367;48.736;9.218;2023-03-04T04:15:21;-23164.38;;;-0.12;100.00
29385;BME280;16367;48.736;9.218;2023-03-04T04:17:24;-23163.09;;;-0.16;100.00
29385;BME280;16367;48.736;9.218;2023-03-04T04:19:26;-23159.91;;;-0.26;100.00
29385;BME280;16367;48.736;9.218;2023-03-04T04:21:31;-23159.91;;;-0.26;100.00
29385;BME280;16367;48.736;9.218;2023-03-04T04:23:33;-23161.66;;;-0.21;100.00
29385;BME280;16367;48.736;9.218;2023-03-04T04:25:36;-23159.13;;;-0.29;100.00
29385;BME280;16367;48.736;9.218;2023-03-04T04:27:39;-23156.41;;;-0.37;100.00
29385;BME280;16367;48.736;9.218;2023-03-04T04:29:41;-23160.41;;;-0.25;100.00
29385;BME280;16367;48.736;9.218;2023-03-04T04:31:44;-23159.75;;;-0.27;100.00
29385;BME280;16367;48.736;9.218;2023-03-04T04:33:47;-23156.06;;;-0.38;100.00
29385;BME280;16367;48.736;9.218;2023-03-04T04:35:50;-23156.41;;;-0.37;100.00
29385;BME280;16367;48.736;9.218;2023-03-04T04:37:54;-23153.19;;;-0.47;100.00
29385;BME280;16367;48.736;9.218;2023-03-04T04:39:56;-23152.88;;;-0.48;100.00
29385;BME280;16367;48.736;9.218;2023-03-04T04:41:59;-23156.72;;;-0.36;100.00
29385;BME280;16367;48.736;9.218;2023-03-04T04:44:02;-23156.06;;;-0.38;100.00
29385;BME280;16367;48.736;9.218;2023-03-04T04:46:05;-23155.91;;;-0.39;100.00
29385;BME280;16367;48.736;9.218;2023-03-04T04:48:07;-23155.75;;;-0.39;100.00
29385;BME280;16367;48.736;9.218;2023-03-04T04:50:10;-23154.47;;;-0.43;100.00
29385;BME280;16367;48.736;9.218;2023-03-04T04:52:13;-23155.13;;;-0.41;100.00
29385;BME280;16367;48.736;9.218;2023-03-04T04:54:17;-23151.91;;;-0.51;100.00
29385;BME280;16367;48.736;9.218;2023-03-04T04:56:22;-23150.31;;;-0.56;100.00
29385;BME280;16367;48.736;9.218;2023-03-04T04:58:26;-23152.88;;;-0.48;100.00
29385;BME280;16367;48.736;9.218;2023-03-04T05:00:29;-23152.88;;;-0.48;100.00
29385;BME280;16367;48.736;9.218;2023-03-04T05:02:33;-23148.41;;;-0.62;100.00
29385;BME280;16367;48.736;9.218;2023-03-04T05:04:36;-23146.66;;;-0.68;100.00
29385;BME280;16367;48.736;9.218;2023-03-04T05:06:39;-23149.03;;;-0.60;100.00
29385;BME280;16367;48.736;9.218;2023-03-04T05:08:42;-23147.44;;;-0.65;100.00
29385;BME280;16367;48.736;9.218;2023-03-04T05:10:47;-23146.50;;;-0.68;100.00
29385;BME280;16367;48.736;9.218;2023-03-04T05:12:49;-23147.44;;;-0.65;100.00
29385;BME280;16367;48.736;9.218;2023-03-04T05:14:52;-23145.84;;;-0.70;100.00
29385;BME280;16367;48.736;9.218;2023-03-04T05:16:55;-23146.00;;;-0.70;100.00
29385;BME280;16367;48.736;9.218;2023-03-04T05:18:57;-23144.72;;;-0.74;100.00
29385;BME280;16367;48.736;9.218;2023-03-04T05:21:02;-23147.28;;;-0.66;100.00
29385;BME280;16367;48.736;9.218;2023-03-04T05:23:05;-23144.72;;;-0.74;100.00
29385;BME280;16367;48.736;9.218;2023-03-04T05:25:14;-23143.59;;;-0.78;100.00
29385;BME280;16367;48.736;9.218;2023-03-04T05:27:18;-23145.22;;;-0.72;100.00
29385;BME280;16367;48.736;9.218;2023-03-04T05:29:21;-23144.56;;;-0.75;100.00
29385;BME280;16367;48.736;9.218;2023-03-04T05:31:24;-23147.75;;;-0.64;100.00
29385;BME280;16367;48.736;9.218;2023-03-04T05:33:27;-23150.66;;;-0.55;100.00
29385;BME280;16367;48.736;9.218;2023-03-04T05:35:30;-23149.69;;;-0.58;100.00
29385;BME280;16367;48.736;9.218;2023-03-04T05:37:32;-23147.75;;;-0.64;100.00
29385;BME280;16367;48.736;9.218;2023-03-04T05:39:35;-23149.03;;;-0.60;100.00
29385;BME280;16367;48.736;9.218;2023-03-04T05:41:37;-23145.69;;;-0.71;100.00
29385;BME280;16367;48.736;9.218;2023-03-04T05:43:41;-23145.53;;;-0.71;100.00
29385;BME280;16367;48.736;9.218;2023-03-04T05:45:44;-23144.41;;;-0.75;100.00
29385;BME280;16367;48.736;9.218;2023-03-04T05:47:47;-23143.94;;;-0.77;100.00
29385;BME280;16367;48.736;9.218;2023-03-04T05:49:49;-23143.94;;;-0.77;100.00
29385;BME280;16367;48.736;9.218;2023-03-04T05:51:52;-23143.28;;;-0.79;100.00
29385;BME280;16367;48.736;9.218;2023-03-04T05:53:55;-23141.38;;;-0.85;100.00
29385;BME280;16367;48.736;9.218;2023-03-04T05:55:57;-23143.59;;;-0.78;100.00
29385;BME280;16367;48.736;9.218;2023-03-04T05:58:00;-23144.25;;;-0.76;100.00
29385;BME280;16367;48.736;9.218;2023-03-04T06:00:06;-23138.50;;;-0.94;100.00
29385;BME280;16367;48.736;9.218;2023-03-04T06:02:10;-23139.13;;;-0.92;100.00
29385;BME280;16367;48.736;9.218;2023-03-04T06:04:13;-23139.13;;;-0.92;100.00
29385;BME280;16367;48.736;9.218;2023-03-04T06:06:16;-23135.63;;;-1.03;100.00
29385;BME280;16367;48.736;9.218;2023-03-04T06:08:18;-23136.25;;;-1.01;100.00
29385;BME280;16367;48.736;9.218;2023-03-04T06:10:21;-23136.72;;;-0.99;100.00
29385;BME280;16367;48.736;9.218;2023-03-04T06:12:24;-23139.28;;;-0.91;100.00
29385;BME280;16367;48.736;9.218;2023-03-04T06:14:27;-23140.56;;;-0.87;100.00
29385;BME280;16367;48.736;9.218;2023-03-04T06:16:31;-23140.91;;;-0.86;100.00
29385;BME280;16367;48.736;9.218;2023-03-04T06:18:34;-23141.06;;;-0.86;100.00
29385;BME280;16367;48.736;9.218;2023-03-04T06:20:37;-23141.38;;;-0.85;100.00
29385;BME280;16367;48.736;9.218;2023-03-04T06:22:39;-23142.66;;;-0.81;100.00
29385;BME280;16367;48.736;9.218;2023-03-04T06:24:42;-23147.44;;;-0.65;100.00
29385;BME280;16367;48.736;9.218;2023-03-04T06:26:45;-23147.44;;;-0.65;100.00
29385;BME280;16367;48.736;9.218;2023-03-04T06:28:47;-23144.09;;;-0.76;100.00
29385;BME280;16367;48.736;9.218;2023-03-04T06:30:50;-23145.53;;;-0.71;100.00
29385;BME280;16367;48.736;9.218;2023-03-04T06:32:55;-23145.06;;;-0.73;100.00
29385;BME280;16367;48.736;9.218;2023-03-04T06:34:57;-23147.28;;;-0.66;100.00
29385;BME280;16367;48.736;9.218;2023-03-04T06:37:00;-23148.09;;;-0.63;100.00
29385;BME280;16367;48.736;9.218;2023-03-04T06:39:04;-23144.56;;;-0.75;100.00
29385;BME280;16367;48.736;9.218;2023-03-04T06:41:07;-23145.84;;;-0.70;100.00
29385;BME280;16367;48.736;9.218;2023-03-04T06:43:10;-23149.84;;;-0.58;100.00
29385;BME280;16367;48.736;9.218;2023-03-04T06:45:13;-23152.09;;;-0.51;100.00
29385;BME280;16367;48.736;9.218;2023-03-04T06:47:15;-23154.81;;;-0.42;100.00
29385;BME280;16367;48.736;9.218;2023-03-04T06:49:20;-23158.16;;;-0.32;100.00
29385;BME280;16367;48.736;9.218;2023-03-04T06:51:23;-23159.91;;;-0.26;100.00
29385;BME280;16367;48.736;9.218;2023-03-04T06:53:25;-23166.31;;;-0.06;100.00
29385;BME280;16367;48.736;9.218;2023-03-04T06:55:28;-23165.81;;;-0.08;100.00
29385;BME280;16367;48.736;9.218;2023-03-04T06:57:30;-23163.44;;;-0.15;100.00
29385;BME280;16367;48.736;9.218;2023-03-04T06:59:33;-23165.03;;;-0.10;100.00
29385;BME280;16367;48.736;9.218;2023-03-04T07:01:36;-23173.66;;;0.17;100.00
29385;BME280;16367;48.736;9.218;2023-03-04T07:03:39;-23167.25;;;-0.03;100.00
29385;BME280;16367;48.736;9.218;2023-03-04T07:05:43;-23175.88;;;0.24;100.00
29385;BME280;16367;48.736;9.218;2023-03-04T07:07:46;-23174.63;;;0.20;100.00
29385;BME280;16367;48.736;9.218;2023-03-04T07:09:50;-23165.66;;;-0.08;100.00
29385;BME280;16367;48.736;9.218;2023-03-04T07:11:52;-23176.22;;;0.25;100.00
29385;BME280;16367;48.736;9.218;2023-03-04T07:13:55;-23176.22;;;0.25;100.00
29385;BME280;16367;48.736;9.218;2023-03-04T07:15:58;-23174.28;;;0.19;100.00
29385;BME280;16367;48.736;9.218;2023-03-04T07:18:01;-23169.97;;;0.06;100.00
29385;BME280;16367;48.736;9.218;2023-03-04T07:20:04;-23170.94;;;0.09;100.00
29385;BME280;16367;48.736;9.218;2023-03-04T07:22:08;-23183.41;;;0.48;100.00
29385;BME280;16367;48.736;9.218;2023-03-04T07:24:11;-23182.91;;;0.46;100.00
29385;BME280;16367;48.736;9.218;2023-03-04T07:26:14;-23169.50;;;0.04;100.00
29385;BME280;16367;48.736;9.218;2023-03-04T07:28:17;-23167.09;;;-0.04;100.00
29385;BME280;16367;48.736;9.218;2023-03-04T07:30:19;-23164.38;;;-0.12;100.00
29385;BME280;16367;48.736;9.218;2023-03-04T07:32:22;-23165.34;;;-0.09;100.00
29385;BME280;16367;48.736;9.218;2023-03-04T07:34:25;-23169.50;;;0.04;100.00
29385;BME280;16367;48.736;9.218;2023-03-04T07:36:28;-23171.41;;;0.10;100.00
29385;BME280;16367;48.736;9.218;2023-03-04T07:38:33;-23177.66;;;0.30;100.00
29385;BME280;16367;48.736;9.218;2023-03-04T07:40:36;-23170.47;;;0.07;100.00
29385;BME280;16367;48.736;9.218;2023-03-04T07:42:39;-23167.91;;;-0.01;100.00
29385;BME280;16367;48.736;9.218;2023-03-04T07:44:41;-23161.19;;;-0.22;100.00
29385;BME280;16367;48.736;9.218;2023-03-04T07:46:44;-23163.44;;;-0.15;100.00
29385;BME280;16367;48.736;9.218;2023-03-04T07:48:46;-23172.69;;;0.14;100.00
29385;BME280;16367;48.736;9.218;2023-03-04T07:50:49;-23153.53;;;-0.46;100.00
29385;BME280;16367;48.736;9.218;2023-03-04T07:52:52;-23159.75;;;-0.27;100.00
29385;BME280;16367;48.736;9.218;2023-03-04T07:54:56;-23146.50;;;-0.68;100.00
29385;BME280;16367;48.736;9.218;2023-03-04T07:56:58;-23153.53;;;-0.46;100.00
29385;BME280;16367;48.736;9.218;2023-03-04T07:59:01;-23149.38;;;-0.59;100.00
29385;BME280;16367;48.736;9.218;2023-03-04T08:01:08;-23160.56;;;-0.24;100.00
29385;BME280;16367;48.736;9.218;2023-03-04T08:03:11;-23160.06;;;-0.26;100.00
29385;BME280;16367;48.736;9.218;2023-03-04T08:05:13;-23157.84;;;-0.33;100.00
29385;BME280;16367;48.736;9.218;2023-03-04T08:07:16;-23151.59;;;-0.52;100.00
29385;BME280;16367;48.736;9.218;2023-03-04T08:09:19;-23148.41;;;-0.62;100.00
29385;BME280;16367;48.736;9.218;2023-03-04T08:11:24;-23155.13;;;-0.41;100.00
29385;BME280;16367;48.736;9.218;2023-03-04T08:13:26;-23159.44;;;-0.28;100.00
29385;BME280;16367;48.736;9.218;2023-03-04T08:15:29;-23165.34;;;-0.09;100.00
29385;BME280;16367;48.736;9.218;2023-03-04T08:17:33;-23161.84;;;-0.20;100.00
29385;BME280;16367;48.736;9.218;2023-03-04T08:19:36;-23169.81;;;0.05;100.00
29385;BME280;16367;48.736;9.218;2023-03-04T08:21:39;-23171.41;;;0.10;100.00
29385;BME280;16367;48.736;9.218;2023-03-04T08:23:41;-23177.16;;;0.28;100.00
29385;BME280;16367;48.736;9.218;2023-03-04T08:25:44;-23166.94;;;-0.04;100.00
29385;BME280;16367;48.736;9.218;2023-03-04T08:27:48;-23160.88;;;-0.23;100.00
29385;BME280;16367;48.736;9.218;2023-03-04T08:29:51;-23153.84;;;-0.45;100.00
29385;BME280;16367;48.736;9.218;2023-03-04T08:31:54;-23160.22;;;-0.25;100.00
29385;BME280;16367;48.736;9.218;2023-03-04T08:33:57;-23167.59;;;-0.02;100.00
29385;BME280;16367;48.736;9.218;2023-03-04T08:35:59;-23159.13;;;-0.29;100.00
29385;BME280;16367;48.736;9.218;2023-03-04T08:38:02;-23168.53;;;0.01;100.00
29385;BME280;16367;48.736;9.218;2023-03-04T08:40:06;-23179.56;;;0.36;100.00
29385;BME280;16367;48.736;9.218;2023-03-04T08:42:09;-23174.63;;;0.20;100.00
29385;BME280;16367;48.736;9.218;2023-03-04T08:44:13;-23160.41;;;-0.25;100.00
29385;BME280;16367;48.736;9.218;2023-03-04T08:46:15;-23151.28;;;-0.53;100.00
29385;BME280;16367;48.736;9.218;2023-03-04T08:48:18;-23157.69;;;-0.33;100.00
29385;BME280;16367;48.736;9.218;2023-03-04T08:50:21;-23176.53;;;0.26;100.00
29385;BME280;16367;48.736;9.218;2023-03-04T08:52:24;-23164.06;;;-0.13;100.00
29385;BME280;16367;48.736;9.218;2023-03-04T08:54:27;-23163.09;;;-0.16;100.00
29385;BME280;16367;48.736;9.218;2023-03-04T08:56:30;-23169.81;;;0.05;100.00
29385;BME280;16367;48.736;9.218;2023-03-04T08:58:32;-23170.78;;;0.08;100.00
29385;BME280;16367;48.736;9.218;2023-03-04T09:00:39;-23168.22;;;0.00;100.00
29385;BME280;16367;48.736;9.218;2023-03-04T09:02:43;-23171.41;;;0.10;100.00
29385;BME280;16367;48.736;9.218;2023-03-04T09:04:46;-23177.50;;;0.29;100.00
29385;BME280;16367;48.736;9.218;2023-03-04T09:06:48;-23173.50;;;0.17;100.00
29385;BME280;16367;48.736;9.218;2023-03-04T09:08:54;-23179.41;;;0.35;100.00
29385;BME280;16367;48.736;9.218;2023-03-04T09:10:56;-23179.88;;;0.37;100.00
29385;BME280;16367;48.736;9.218;2023-03-04T09:12:59;-23183.09;;;0.47;100.00
29385;BME280;16367;48.736;9.218;2023-03-04T09:15:02;-23179.41;;;0.35;100.00
29385;BME280;16367;48.736;9.218;2023-03-04T09:17:13;-23177.16;;;0.28;100.00
29385;BME280;16367;48.736;9.218;2023-03-04T09:19:16;-23182.59;;;0.45;100.00
29385;BME280;16367;48.736;9.218;2023-03-04T09:21:19;-23175.09;;;0.22;100.00
29385;BME280;16367;48.736;9.218;2023-03-04T09:23:21;-23182.59;;;0.45;100.00
29385;BME280;16367;48.736;9.218;2023-03-04T09:25:24;-23178.63;;;0.33;100.00
29385;BME280;16367;48.736;9.218;2023-03-04T09:27:27;-23174.63;;;0.20;100.00
29385;BME280;16367;48.736;9.218;2023-03-04T09:29:30;-23184.84;;;0.52;100.00
29385;BME280;16367;48.736;9.218;2023-03-04T09:31:32;-23192.34;;;0.76;100.00
29385;BME280;16367;48.736;9.218;2023-03-04T09:33:37;-23181.97;;;0.43;100.00
29385;BME280;16367;48.736;9.218;2023-03-04T09:35:42;-23193.16;;;0.79;100.00
29385;BME280;16367;48.736;9.218;2023-03-04T09:37:45;-23194.75;;;0.84;100.00
29385;BME280;16367;48.736;9.218;2023-03-04T09:39:49;-23189.00;;;0.65;100.00
29385;BME280;16367;48.736;9.218;2023-03-04T09:41:54;-23174.94;;;0.21;100.00
29385;BME280;16367;48.736;9.218;2023-03-04T09:43:58;-23178.44;;;0.32;100.00
29385;BME280;16367;48.736;9.218;2023-03-04T09:46:05;-23190.09;;;0.69;100.00
29385;BME280;16367;48.736;9.218;2023-03-04T09:48:12;-23197.63;;;0.93;100.00
29385;BME280;16367;48.736;9.218;2023-03-04T09:50:19;-23199.22;;;0.98;100.00
29385;BME280;16367;48.736;9.218;2023-03-04T09:52:29;-23194.91;;;0.84;100.00
29385;BME280;16367;48.736;9.218;2023-03-04T09:54:51;-23189.78;;;0.68;100.00
29385;BME280;16367;48.736;9.218;2023-03-04T09:57:09;-23203.19;;;1.10;100.00
29385;BME280;16367;48.736;9.218;2023-03-04T09:59:22;-23197.63;;;0.93;100.00
29385;BME280;16367;48.736;9.218;2023-03-04T10:01:30;-23179.41;;;0.35;100.00
29385;BME280;16367;48.736;9.218;2023-03-04T10:03:41;-23189.31;;;0.66;100.00
29385;BME280;16367;48.736;9.218;2023-03-04T10:05:52;-23177.00;;;0.28;100.00
29385;BME280;16367;48.736;9.218;2023-03-04T10:07:58;-23193.16;;;0.79;100.00
29385;BME280;16367;48.736;9.218;2023-03-04T10:10:04;-23203.03;;;1.10;100.00
29385;BME280;16367;48.736;9.218;2023-03-04T10:12:11;-23195.06;;;0.85;100.00
29385;BME280;16367;48.736;9.218;2023-03-04T10:14:32;-23203.69;;;1.12;100.00
29385;BME280;16367;48.736;9.218;2023-03-04T10:16:39;-23214.53;;;1.46;100.00
29385;BME280;16367;48.736;9.218;2023-03-04T10:18:48;-23193.47;;;0.80;100.00
29385;BME280;16367;48.736;9.218;2023-03-04T10:20:56;-23193.94;;;0.81;100.00
29385;BME280;16367;48.736;9.218;2023-03-04T10:23:08;-23207.03;;;1.22;100.00
29385;BME280;16367;48.736;9.218;2023-03-04T10:25:17;-23227.31;;;1.86;97.01
29385;BME280;16367;48.736;9.218;2023-03-04T10:27:20;-23218.53;;;1.59;96.29
29385;BME280;16367;48.736;9.218;2023-03-04T10:29:24;-23212.63;;;1.40;95.76
29385;BME280;16367;48.736;9.218;2023-03-04T10:31:31;-23215.19;;;1.48;94.40
29385;BME280;16367;48.736;9.218;2023-03-04T10:33:37;-23213.09;;;1.41;94.60
29385;BME280;16367;48.736;9.218;2023-03-04T10:35:43;-23208.63;;;1.27;94.33
29385;BME280;16367;48.736;9.218;2023-03-04T10:37:49;-23213.41;;;1.42;94.79
29385;BME280;16367;48.736;9.218;2023-03-04T10:39:52;-23224.13;;;1.76;94.19
29385;BME280;16367;48.736;9.218;2023-03-04T10:41:58;-23237.34;;;2.18;90.02
29385;BME280;16367;48.736;9.218;2023-03-04T10:44:03;-23235.91;;;2.13;90.76